Time;durP1;ratioP1;P1;durP2;ratioP2;P2;SDS_P1;SDS_P2;PMS_P1;PMS_P2;Temp;Humidity;BMP_temperature;BMP_pressure;BME280_temperature;BME280_humidity;BME280_pressure;Samples;Min_cycle;Max_cycle;Signal;HPM_P1;HPM_P2
2023/12/18 00:00:22;;;;;;;27.00;13.02;;;12.50;99.90;;;;;;4993153;28;20385;-76
2023/12/18 00:02:48;;;;;;;23.08;12.00;;;12.50;99.90;;;;;;4976109;28;20048;-77
2023/12/18 00:05:13;;;;;;;31.50;12.40;;;12.90;99.90;;;;;;4990444;28;20393;-78
2023/12/18 00:07:39;;;;;;;18.33;12.13;;;12.80;99.90;;;;;;4981573;28;20100;-77
2023/12/18 00:10:05;;;;;;;26.30;11.82;;;12.90;99.90;;;;;;5011434;28;20366;-81
2023/12/18 00:12:31;;;;;;;26.17;12.90;;;12.80;99.90;;;;;;5014243;28;20040;-77
2023/12/18 00:14:56;;;;;;;24.05;12.40;;;12.50;99.90;;;;;;4993463;28;20045;-75
2023/12/18 00:17:22;;;;;;;22.75;12.15;;;12.90;99.90;;;;;;4996825;28;20052;-79
2023/12/18 00:19:48;;;;;;;22.48;12.75;;;13.00;99.90;;;;;;4993072;28;20653;-80
2023/12/18 00:22:14;;;;;;;24.75;11.40;;;12.90;99.90;;;;;;5010124;28;20045;-75
2023/12/18 00:24:39;;;;;;;22.20;11.40;;;12.60;99.90;;;;;;4996556;28;20080;-74
2023/12/18 00:27:05;;;;;;;22.92;11.80;;;13.00;99.90;;;;;;5013821;28;20453;-76
2023/12/18 00:29:30;;;;;;;23.30;11.00;;;13.00;99.90;;;;;;4994993;28;20100;-77
2023/12/18 00:31:56;;;;;;;20.70;11.07;;;12.90;99.90;;;;;;5011561;28;20040;-77
2023/12/18 00:34:22;;;;;;;19.52;10.95;;;12.60;99.90;;;;;;4961358;28;20041;-77
2023/12/18 00:36:49;;;;;;;18.63;9.93;;;12.50;99.90;;;;;;5009862;28;20079;-77
2023/12/18 00:39:17;;;;;;;18.98;10.55;;;12.60;99.90;;;;;;5013602;28;20033;-74
2023/12/18 00:41:43;;;;;;;23.02;11.15;;;12.60;99.90;;;;;;5014236;28;20749;-78
2023/12/18 00:44:09;;;;;;;25.33;11.40;;;13.00;99.90;;;;;;4992444;28;20061;-80
2023/12/18 00:46:35;;;;;;;20.33;11.23;;;12.70;99.90;;;;;;5005122;28;20045;-78
2023/12/18 00:49:00;;;;;;;22.30;10.85;;;13.00;99.90;;;;;;5011539;28;20037;-77
2023/12/18 00:51:26;;;;;;;19.27;11.30;;;13.00;99.90;;;;;;4993622;28;20092;-80
2023/12/18 00:53:51;;;;;;;21.80;10.60;;;13.00;99.90;;;;;;5007551;28;20072;-77
2023/12/18 00:56:17;;;;;;;25.38;12.20;;;13.10;99.90;;;;;;5008474;28;20045;-80
2023/12/18 00:58:43;;;;;;;24.02;11.93;;;12.60;99.90;;;;;;4996595;28;20058;-81
2023/12/18 01:01:10;;;;;;;24.10;10.82;;;12.60;99.90;;;;;;4995720;28;20428;-74
2023/12/18 01:03:35;;;;;;;20.27;10.68;;;13.10;99.90;;;;;;4988448;28;20037;-76
2023/12/18 01:06:02;;;;;;;16.60;9.63;;;12.60;99.90;;;;;;5009638;28;20038;-75
2023/12/18 01:08:28;;;;;;;21.92;10.38;;;13.10;99.90;;;;;;4997217;28;20040;-76
2023/12/18 01:10:53;;;;;;;21.35;9.90;;;12.80;99.90;;;;;;4974609;28;20037;-79
2023/12/18 01:13:19;;;;;;;20.75;9.27;;;13.00;99.90;;;;;;4960820;28;20034;-76
2023/12/18 01:15:44;;;;;;;20.67;10.38;;;12.70;99.90;;;;;;4959495;28;20046;-78
2023/12/18 01:18:10;;;;;;;20.88;9.80;;;13.00;99.90;;;;;;5003989;28;20092;-78
2023/12/18 01:20:36;;;;;;;21.00;9.63;;;12.80;99.90;;;;;;4989727;28;20048;-77
2023/12/18 01:23:01;;;;;;;22.88;9.88;;;13.10;99.90;;;;;;4983809;28;20481;-80
2023/12/18 01:25:27;;;;;;;22.27;9.85;;;13.00;99.90;;;;;;4995891;28;20466;-77
2023/12/18 01:27:53;;;;;;;21.05;9.73;;;13.00;99.90;;;;;;4978630;28;20444;-77
2023/12/18 01:30:18;;;;;;;18.02;9.40;;;12.90;99.90;;;;;;4996342;28;20052;-78
2023/12/18 01:32:44;;;;;;;21.58;9.82;;;12.70;99.90;;;;;;5006528;28;20042;-77
2023/12/18 01:35:10;;;;;;;22.63;10.20;;;13.00;99.90;;;;;;4995625;28;20083;-74
2023/12/18 01:37:35;;;;;;;18.40;9.55;;;13.00;99.90;;;;;;4995004;28;20042;-77
2023/12/18 01:40:01;;;;;;;21.65;9.27;;;12.70;99.90;;;;;;4999153;28;20053;-79
2023/12/18 01:42:27;;;;;;;21.35;10.32;;;12.90;99.90;;;;;;4979299;28;20128;-76
2023/12/18 01:44:52;;;;;;;22.27;10.00;;;12.90;99.90;;;;;;5010570;28;20041;-76
2023/12/18 01:47:19;;;;;;;19.85;10.23;;;13.10;99.90;;;;;;4998531;28;20098;-80
2023/12/18 01:49:45;;;;;;;21.80;9.65;;;12.80;99.90;;;;;;4980034;28;20042;-76
2023/12/18 01:52:11;;;;;;;17.35;8.77;;;12.70;99.90;;;;;;5011515;28;20100;-77
2023/12/18 01:54:37;;;;;;;24.10;9.32;;;13.10;99.90;;;;;;4980818;28;20517;-79
2023/12/18 01:57:04;;;;;;;22.42;9.73;;;13.00;99.90;;;;;;5011198;28;20053;-76
2023/12/18 01:59:32;;;;;;;18.20;9.65;;;12.80;99.90;;;;;;4981760;28;20061;-78
2023/12/18 02:01:58;;;;;;;18.13;9.20;;;13.10;99.90;;;;;;5007900;28;20049;-78
2023/12/18 02:04:24;;;;;;;19.55;9.27;;;12.70;99.90;;;;;;5015187;28;20080;-77
2023/12/18 02:06:50;;;;;;;21.35;8.90;;;12.80;99.90;;;;;;5011797;28;20516;-78
2023/12/18 02:09:16;;;;;;;17.67;8.77;;;13.00;99.90;;;;;;4995459;28;20041;-79
2023/12/18 02:11:45;;;;;;;19.52;9.35;;;12.70;99.90;;;;;;5006298;28;20042;-79
2023/12/18 02:14:12;;;;;;;16.92;9.23;;;13.10;99.90;;;;;;5009980;28;20037;-77
2023/12/18 02:16:38;;;;;;;23.65;9.88;;;12.60;99.90;;;;;;4982409;28;20045;-80
2023/12/18 02:19:04;;;;;;;20.73;9.95;;;13.00;99.90;;;;;;5009485;28;20048;-77
2023/12/18 02:21:29;;;;;;;23.50;9.75;;;13.00;99.90;;;;;;5009291;28;20029;-75
2023/12/18 02:23:55;;;;;;;18.88;9.32;;;13.10;99.90;;;;;;4977890;28;20104;-76
2023/12/18 02:26:21;;;;;;;20.23;8.98;;;12.80;99.90;;;;;;4979460;28;20041;-77
2023/12/18 02:28:47;;;;;;;17.95;10.43;;;12.70;99.90;;;;;;4999526;28;20030;-74
2023/12/18 02:31:13;;;;;;;18.60;9.63;;;12.60;99.90;;;;;;4998793;28;20050;-79
2023/12/18 02:33:40;;;;;;;17.15;9.60;;;13.10;99.90;;;;;;4999842;28;20114;-77
2023/12/18 02:36:07;;;;;;;19.88;9.77;;;13.10;99.90;;;;;;4965502;28;20041;-79
2023/12/18 02:38:33;;;;;;;28.00;10.02;;;13.10;99.90;;;;;;4990091;28;20045;-81
2023/12/18 02:40:59;;;;;;;17.10;8.93;;;12.70;99.90;;;;;;4994850;28;20041;-75
2023/12/18 02:43:24;;;;;;;19.30;8.93;;;12.70;99.90;;;;;;5009195;28;20052;-78
2023/12/18 02:45:50;;;;;;;21.75;9.68;;;13.10;99.90;;;;;;4991676;28;20038;-78
2023/12/18 02:48:16;;;;;;;19.60;9.23;;;12.60;99.90;;;;;;5006165;28;20068;-76
2023/12/18 02:50:41;;;;;;;20.73;9.18;;;12.60;99.90;;;;;;4989166;28;20042;-77
2023/12/18 02:53:07;;;;;;;19.75;8.80;;;13.10;99.90;;;;;;5004001;28;20037;-77
2023/12/18 02:55:33;;;;;;;15.40;8.02;;;13.10;99.90;;;;;;5005171;28;20029;-77
2023/12/18 02:57:59;;;;;;;17.83;8.02;;;12.80;99.90;;;;;;5004710;28;20056;-76
2023/12/18 03:00:25;;;;;;;19.77;8.52;;;13.10;99.90;;;;;;5005639;28;20045;-75
2023/12/18 03:02:50;;;;;;;20.73;8.43;;;12.60;99.90;;;;;;4974418;28;20037;-74
2023/12/18 03:05:17;;;;;;;22.52;8.65;;;13.10;99.90;;;;;;4990131;28;20040;-78
2023/12/18 03:07:43;;;;;;;15.55;8.27;;;12.80;99.90;;;;;;4974353;28;20045;-78
2023/12/18 03:10:09;;;;;;;23.38;8.45;;;13.10;99.90;;;;;;4974576;28;20428;-77
2023/12/18 03:12:34;;;;;;;18.30;8.23;;;13.10;99.90;;;;;;4971077;28;20037;-77
2023/12/18 03:15:00;;;;;;;21.35;8.20;;;13.00;99.90;;;;;;4994491;28;20052;-76
2023/12/18 03:17:26;;;;;;;21.95;7.53;;;12.80;99.90;;;;;;5003504;28;20096;-77
2023/12/18 03:19:51;;;;;;;19.83;7.80;;;12.60;99.90;;;;;;4990898;28;20099;-77
2023/12/18 03:22:17;;;;;;;16.60;7.47;;;13.00;99.90;;;;;;4989031;28;20064;-76
2023/12/18 03:24:43;;;;;;;22.80;7.97;;;13.00;99.90;;;;;;5001376;28;20510;-78
2023/12/18 03:27:09;;;;;;;14.30;6.60;;;13.10;99.90;;;;;;5008868;28;20041;-76
2023/12/18 03:29:35;;;;;;;21.55;7.43;;;13.10;99.90;;;;;;5006911;28;20047;-74
2023/12/18 03:32:03;;;;;;;19.95;8.27;;;12.80;99.90;;;;;;4991045;28;20043;-75
2023/12/18 03:34:30;;;;;;;18.65;7.40;;;13.20;99.90;;;;;;4994435;28;20046;-77
2023/12/18 03:36:55;;;;;;;15.35;6.90;;;13.00;99.90;;;;;;4997774;28;20038;-78
2023/12/18 03:39:21;;;;;;;17.45;8.05;;;13.20;99.90;;;;;;4995631;28;20034;-78
2023/12/18 03:41:47;;;;;;;16.33;7.53;;;12.70;99.90;;;;;;4994121;28;20116;-75
2023/12/18 03:44:12;;;;;;;18.88;7.13;;;12.90;99.90;;;;;;4979673;28;20045;-75
2023/12/18 03:46:38;;;;;;;16.80;6.75;;;13.10;99.90;;;;;;4982034;28;20083;-76
2023/12/18 03:49:04;;;;;;;13.60;6.93;;;13.20;99.90;;;;;;5014789;28;20037;-76
2023/12/18 03:51:29;;;;;;;18.65;6.93;;;13.20;99.90;;;;;;4994697;28;20033;-80
2023/12/18 03:53:55;;;;;;;16.00;7.05;;;12.80;99.90;;;;;;4979675;28;20033;-78
2023/12/18 03:56:21;;;;;;;17.33;7.22;;;13.00;99.90;;;;;;5008266;28;20124;-75
2023/12/18 03:58:47;;;;;;;18.30;7.15;;;13.20;99.90;;;;;;4978970;28;20449;-78
2023/12/18 04:01:13;;;;;;;18.20;7.75;;;12.90;99.90;;;;;;5013537;28;20144;-76
2023/12/18 04:03:38;;;;;;;16.90;7.43;;;12.80;99.90;;;;;;4996736;28;20168;-73
2023/12/18 04:06:07;;;;;;;16.08;7.28;;;13.10;99.90;;;;;;4992213;28;20045;-76
2023/12/18 04:08:33;;;;;;;22.88;7.90;;;12.90;99.90;;;;;;5005874;28;20366;-78
2023/12/18 04:10:59;;;;;;;16.35;7.10;;;13.20;99.90;;;;;;5006308;28;20052;-78
2023/12/18 04:13:24;;;;;;;13.57;7.03;;;12.80;99.90;;;;;;5006446;28;20034;-77
2023/12/18 04:15:51;;;;;;;22.00;7.15;;;12.80;99.90;;;;;;4988724;28;20417;-76
2023/12/18 04:18:16;;;;;;;18.45;7.05;;;12.70;99.90;;;;;;4994336;28;20046;-75
2023/12/18 04:20:42;;;;;;;18.67;7.22;;;13.20;99.90;;;;;;4985811;28;20050;-76
2023/12/18 04:23:08;;;;;;;18.60;6.97;;;12.90;99.90;;;;;;4968668;28;20029;-76
2023/12/18 04:25:34;;;;;;;21.70;6.78;;;12.80;99.90;;;;;;4995756;28;20477;-80
2023/12/18 04:27:59;;;;;;;20.83;7.57;;;13.30;99.90;;;;;;4971179;28;20121;-79
2023/12/18 04:30:25;;;;;;;16.15;6.85;;;13.30;99.90;;;;;;5010848;28;20065;-80
2023/12/18 04:32:51;;;;;;;17.05;6.95;;;13.10;99.90;;;;;;4996796;28;20037;-77
2023/12/18 04:35:16;;;;;;;15.43;6.80;;;13.20;99.90;;;;;;4962213;28;20124;-78
2023/12/18 04:37:42;;;;;;;23.33;8.65;;;12.90;99.90;;;;;;4995965;28;20493;-79
2023/12/18 04:40:11;;;;;;;16.40;8.30;;;13.30;99.90;;;;;;5002529;28;20124;-79
2023/12/18 04:42:36;;;;;;;17.33;9.50;;;12.70;99.90;;;;;;5013047;28;20378;-78
2023/12/18 04:45:02;;;;;;;18.85;8.75;;;12.90;99.90;;;;;;5001179;28;20085;-75
2023/12/18 04:47:28;;;;;;;24.90;10.35;;;12.80;99.90;;;;;;4975083;28;20038;-74
2023/12/18 04:49:53;;;;;;;19.08;10.30;;;13.10;99.90;;;;;;4990082;28;20079;-74
2023/12/18 04:52:19;;;;;;;19.65;10.25;;;13.20;99.90;;;;;;4996952;28;20048;-80
2023/12/18 04:54:45;;;;;;;20.38;10.07;;;13.20;99.90;;;;;;5009529;28;20103;-75
2023/12/18 04:57:11;;;;;;;16.48;9.18;;;12.90;99.90;;;;;;5013381;28;20128;-76
2023/12/18 04:59:36;;;;;;;20.48;9.68;;;12.80;99.90;;;;;;4993575;28;20061;-77
2023/12/18 05:02:02;;;;;;;21.42;10.23;;;13.10;99.90;;;;;;4978202;28;20053;-78
2023/12/18 05:04:28;;;;;;;18.35;10.38;;;13.20;99.90;;;;;;4995907;28;20129;-78
2023/12/18 05:06:53;;;;;;;20.35;10.10;;;12.90;99.90;;;;;;4976377;28;20462;-75
2023/12/18 05:09:19;;;;;;;20.73;9.68;;;12.90;99.90;;;;;;4961499;28;20061;-79
2023/12/18 05:11:44;;;;;;;18.55;9.65;;;13.00;99.90;;;;;;4962773;28;20084;-76
2023/12/18 05:14:10;;;;;;;18.80;9.30;;;12.80;99.90;;;;;;4997545;28;20029;-78
2023/12/18 05:16:36;;;;;;;20.50;10.32;;;13.30;99.90;;;;;;5013348;28;20033;-79
2023/12/18 05:19:01;;;;;;;37.92;10.95;;;12.90;99.90;;;;;;4977768;28;20096;-77
2023/12/18 05:21:28;;;;;;;19.92;9.73;;;13.30;99.90;;;;;;5011868;28;20057;-77
2023/12/18 05:23:54;;;;;;;17.95;8.88;;;12.90;99.90;;;;;;4996693;28;20038;-80
2023/12/18 05:26:20;;;;;;;21.35;9.95;;;13.10;99.90;;;;;;5011635;28;20500;-76
2023/12/18 05:28:46;;;;;;;22.08;9.02;;;13.00;99.90;;;;;;5006872;28;20101;-82
2023/12/18 05:31:12;;;;;;;22.30;9.48;;;12.80;99.90;;;;;;5002786;28;20120;-75
2023/12/18 05:33:38;;;;;;;19.50;9.90;;;13.40;99.90;;;;;;5005323;28;20056;-77
2023/12/18 05:36:04;;;;;;;20.38;9.32;;;12.80;99.90;;;;;;5000953;28;20056;-75
2023/12/18 05:38:29;;;;;;;20.65;9.65;;;13.20;99.90;;;;;;4986549;28;20033;-78
2023/12/18 05:40:55;;;;;;;19.15;10.18;;;13.00;99.90;;;;;;4987593;28;20124;-80
2023/12/18 05:43:20;;;;;;;17.27;9.10;;;13.00;99.90;;;;;;5004067;28;20038;-76
2023/12/18 05:45:46;;;;;;;26.05;10.98;;;12.90;99.90;;;;;;5010225;28;20137;-78
2023/12/18 05:48:12;;;;;;;21.05;9.82;;;12.80;99.90;;;;;;4993799;28;20038;-81
2023/12/18 05:50:38;;;;;;;25.27;9.85;;;12.80;99.90;;;;;;4973265;28;20140;-76
2023/12/18 05:53:04;;;;;;;19.38;9.98;;;13.20;99.90;;;;;;5002001;28;20030;-75
2023/12/18 05:55:29;;;;;;;18.80;9.82;;;12.90;99.90;;;;;;4971225;28;20095;-81
2023/12/18 05:57:55;;;;;;;24.52;10.77;;;13.20;99.90;;;;;;4990133;28;20466;-76
2023/12/18 06:00:21;;;;;;;24.02;10.77;;;13.40;99.90;;;;;;4988281;28;20127;-77
2023/12/18 06:02:47;;;;;;;24.40;10.77;;;13.10;99.90;;;;;;4960268;28;20419;-77
2023/12/18 06:05:12;;;;;;;20.67;10.70;;;13.40;99.90;;;;;;4966468;28;20078;-78
2023/12/18 06:07:40;;;;;;;21.02;11.07;;;13.00;99.90;;;;;;4967898;28;20437;-78
2023/12/18 06:10:06;;;;;;;24.77;11.48;;;12.90;99.90;;;;;;5013307;28;20067;-76
2023/12/18 06:12:32;;;;;;;21.45;11.57;;;13.20;99.90;;;;;;4970975;28;20100;-76
2023/12/18 06:14:58;;;;;;;24.38;11.48;;;12.80;99.90;;;;;;5007130;28;20069;-80
2023/12/18 06:17:23;;;;;;;23.27;12.38;;;12.80;99.90;;;;;;4966997;28;20103;-76
2023/12/18 06:19:49;;;;;;;21.98;11.88;;;12.90;99.90;;;;;;4971194;28;20508;-78
2023/12/18 06:22:15;;;;;;;26.88;13.13;;;13.30;99.90;;;;;;4977033;28;20048;-78
2023/12/18 06:24:40;;;;;;;22.13;12.05;;;13.00;99.90;;;;;;4949039;28;20069;-78
2023/12/18 06:27:06;;;;;;;21.30;11.98;;;12.80;99.90;;;;;;4990601;28;22024;-75
2023/12/18 06:29:32;;;;;;;22.33;12.25;;;13.00;99.90;;;;;;5006177;28;20490;-78
2023/12/18 06:31:58;;;;;;;21.60;12.25;;;13.20;99.90;;;;;;4991844;28;20456;-79
2023/12/18 06:34:24;;;;;;;27.10;12.63;;;12.80;99.90;;;;;;4977173;28;20087;-79
2023/12/18 06:36:49;;;;;;;24.95;12.85;;;13.30;99.90;;;;;;5005730;28;20107;-78
2023/12/18 06:39:15;;;;;;;26.55;13.40;;;12.80;99.90;;;;;;4990646;28;20068;-77
2023/12/18 06:41:41;;;;;;;26.10;12.68;;;12.90;99.90;;;;;;4974031;28;20144;-77
2023/12/18 06:44:06;;;;;;;24.02;12.70;;;13.00;99.90;;;;;;4995014;28;20045;-79
2023/12/18 06:46:34;;;;;;;24.75;14.13;;;13.30;99.90;;;;;;4981531;28;20041;-77
2023/12/18 06:49:01;;;;;;;22.90;14.25;;;13.20;99.90;;;;;;4998878;28;20077;-77
2023/12/18 06:51:26;;;;;;;23.63;13.00;;;13.30;99.90;;;;;;5001132;28;20124;-77
2023/12/18 06:53:52;;;;;;;25.17;13.57;;;13.20;99.90;;;;;;4998540;28;20121;-74
2023/12/18 06:56:18;;;;;;;25.55;13.30;;;13.30;99.90;;;;;;4999685;28;20045;-82
2023/12/18 06:58:44;;;;;;;26.38;13.43;;;13.30;99.90;;;;;;5028079;28;20057;-81
2023/12/18 07:01:09;;;;;;;21.65;12.88;;;13.30;99.90;;;;;;5004992;28;20091;-82
2023/12/18 07:03:36;;;;;;;24.88;14.35;;;13.30;99.90;;;;;;5019019;28;20136;-77
2023/12/18 07:06:02;;;;;;;28.67;14.13;;;13.20;99.90;;;;;;5020548;28;20042;-78
2023/12/18 07:08:29;;;;;;;27.73;14.02;;;12.70;99.90;;;;;;4990913;28;20033;-77
2023/12/18 07:10:57;;;;;;;23.30;13.13;;;12.70;99.90;;;;;;5008458;28;20040;-81
2023/12/18 07:13:23;;;;;;;23.98;13.52;;;13.20;99.90;;;;;;4999070;28;20046;-78
2023/12/18 07:15:51;;;;;;;27.58;13.68;;;13.20;99.90;;;;;;5015167;28;20037;-80
2023/12/18 07:18:17;;;;;;;22.58;13.57;;;12.70;99.90;;;;;;4998707;28;20038;-79
2023/12/18 07:20:44;;;;;;;23.25;13.60;;;12.70;99.90;;;;;;4998972;28;20053;-78
2023/12/18 07:23:10;;;;;;;26.40;14.18;;;13.30;99.90;;;;;;4999544;28;20106;-76
2023/12/18 07:25:36;;;;;;;23.50;13.75;;;12.70;99.90;;;;;;5014911;28;20452;-80
2023/12/18 07:28:07;;;;;;;25.55;14.15;;;12.80;99.90;;;;;;5015133;28;20034;-77
2023/12/18 07:30:33;;;;;;;25.75;14.77;;;13.30;99.90;;;;;;4995414;28;20120;-79
2023/12/18 07:32:59;;;;;;;24.75;14.60;;;12.70;99.90;;;;;;5007441;28;20123;-83
2023/12/18 07:35:25;;;;;;;25.83;13.88;;;12.80;99.90;;;;;;4999090;28;20128;-76
2023/12/18 07:37:51;;;;;;;24.10;13.25;;;13.20;99.90;;;;;;4980698;28;20049;-77
2023/12/18 07:40:16;;;;;;;21.42;14.13;;;12.80;99.90;;;;;;4989590;28;20470;-79
2023/12/18 07:42:42;;;;;;;30.00;14.75;;;13.20;99.90;;;;;;5001504;28;20045;-77
2023/12/18 07:45:08;;;;;;;25.48;14.15;;;13.10;99.90;;;;;;5016090;28;20053;-77
2023/12/18 07:47:34;;;;;;;27.67;14.55;;;12.90;99.90;;;;;;4998313;28;20124;-76
2023/12/18 07:49:59;;;;;;;31.02;14.35;;;12.80;99.90;;;;;;4998443;28;20120;-78
2023/12/18 07:52:25;;;;;;;25.17;13.82;;;12.90;99.90;;;;;;4985355;28;20032;-78
2023/12/18 07:54:51;;;;;;;22.73;14.30;;;12.90;99.90;;;;;;5009571;28;20152;-78
2023/12/18 07:57:16;;;;;;;30.52;14.88;;;13.10;99.90;;;;;;4998523;28;20492;-75
2023/12/18 07:59:42;;;;;;;27.33;14.45;;;13.40;99.90;;;;;;5015122;28;20508;-81
2023/12/18 08:02:09;;;;;;;26.77;13.82;;;12.80;99.90;;;;;;4981972;28;20081;-77
2023/12/18 08:04:38;;;;;;;26.30;14.00;;;13.30;99.90;;;;;;5007079;28;20068;-81
2023/12/18 08:07:04;;;;;;;26.30;14.20;;;13.30;99.90;;;;;;4995054;28;20124;-79
2023/12/18 08:09:30;;;;;;;26.30;14.10;;;12.80;99.90;;;;;;4996761;28;20034;-77
2023/12/18 08:11:56;;;;;;;24.77;14.75;;;13.40;99.90;;;;;;4998416;28;20041;-78
2023/12/18 08:14:22;;;;;;;23.25;14.35;;;12.80;99.90;;;;;;4997795;28;20105;-74
2023/12/18 08:16:49;;;;;;;26.77;13.65;;;13.30;99.90;;;;;;4996996;28;20053;-79
2023/12/18 08:19:14;;;;;;;28.33;14.30;;;13.40;99.90;;;;;;4997854;28;20037;-78
2023/12/18 08:21:40;;;;;;;26.77;13.32;;;12.80;99.90;;;;;;5006887;28;20037;-77
2023/12/18 08:24:06;;;;;;;28.42;13.93;;;13.10;99.90;;;;;;5003179;28;20060;-73
2023/12/18 08:26:31;;;;;;;30.08;14.77;;;13.30;99.90;;;;;;4979113;28;20052;-79
2023/12/18 08:28:57;;;;;;;27.40;14.82;;;13.00;99.90;;;;;;4974970;28;20037;-78
2023/12/18 08:31:23;;;;;;;21.90;13.43;;;13.40;99.90;;;;;;5014103;28;20037;-77
2023/12/18 08:33:49;;;;;;;31.60;15.35;;;13.00;99.90;;;;;;4998384;28;20041;-79
2023/12/18 08:36:14;;;;;;;26.92;15.02;;;12.80;99.90;;;;;;5012953;28;20048;-77
2023/12/18 08:38:40;;;;;;;24.30;13.55;;;12.90;99.90;;;;;;5013412;28;20044;-75
2023/12/18 08:41:06;;;;;;;27.67;15.00;;;13.40;99.90;;;;;;4997654;28;20037;-80
2023/12/18 08:43:32;;;;;;;29.80;15.23;;;13.00;99.90;;;;;;4985750;28;20037;-79
2023/12/18 08:45:57;;;;;;;25.90;13.60;;;12.90;99.90;;;;;;5011549;28;20082;-78
2023/12/18 08:48:23;;;;;;;25.08;14.25;;;12.90;99.90;;;;;;5016640;28;20521;-80
2023/12/18 08:50:49;;;;;;;22.63;12.63;;;13.60;99.90;;;;;;5003956;28;20124;-79
2023/12/18 08:53:14;;;;;;;21.80;13.52;;;12.90;99.90;;;;;;4995605;28;20504;-78
2023/12/18 08:55:40;;;;;;;26.50;13.95;;;13.40;99.90;;;;;;4977857;28;20414;-77
2023/12/18 08:58:08;;;;;;;24.38;14.70;;;13.20;99.90;;;;;;5012040;28;20156;-80
2023/12/18 09:00:34;;;;;;;24.13;14.43;;;13.00;99.90;;;;;;5000591;28;20123;-77
2023/12/18 09:02:59;;;;;;;30.35;15.05;;;12.90;99.90;;;;;;5016523;28;20135;-78
2023/12/18 09:05:25;;;;;;;24.95;14.50;;;13.40;99.90;;;;;;5002337;28;20036;-80
2023/12/18 09:07:51;;;;;;;29.08;14.15;;;13.60;99.90;;;;;;5013167;28;20033;-80
2023/12/18 09:10:22;;;;;;;24.98;14.57;;;13.40;99.90;;;;;;4997530;28;20045;-81
2023/12/18 09:12:52;;;;;;;22.38;14.02;;;13.30;99.90;;;;;;4997811;28;20046;-76
2023/12/18 09:15:18;;;;;;;22.42;13.93;;;13.60;99.90;;;;;;5015093;28;20037;-78
2023/12/18 09:17:44;;;;;;;26.55;13.52;;;13.20;99.90;;;;;;5013265;28;20079;-81
2023/12/18 09:20:10;;;;;;;25.85;14.38;;;13.10;99.90;;;;;;4996232;28;20069;-76
2023/12/18 09:22:36;;;;;;;25.10;13.52;;;13.10;99.90;;;;;;5013605;28;20034;-81
2023/12/18 09:25:03;;;;;;;23.88;14.20;;;13.10;99.90;;;;;;5004531;28;20513;-80
2023/12/18 09:27:28;;;;;;;27.25;14.82;;;13.20;99.90;;;;;;5019008;28;20037;-77
2023/12/18 09:29:55;;;;;;;28.13;14.68;;;13.00;99.90;;;;;;4997631;28;20096;-79
2023/12/18 09:32:21;;;;;;;25.30;15.10;;;13.50;99.90;;;;;;5004085;28;20493;-81
2023/12/18 09:34:47;;;;;;;30.00;15.50;;;13.70;99.90;;;;;;4995740;28;20056;-77
2023/12/18 09:37:13;;;;;;;26.27;14.60;;;13.30;99.90;;;;;;5026955;28;20502;-79
2023/12/18 09:39:42;;;;;;;27.73;14.88;;;13.50;99.90;;;;;;4997920;28;20057;-79
2023/12/18 09:42:12;;;;;;;31.23;15.82;;;13.20;99.90;;;;;;5002250;28;20033;-79
2023/12/18 09:44:38;;;;;;;29.63;15.57;;;13.10;99.90;;;;;;5004394;28;20091;-80
2023/12/18 09:47:04;;;;;;;24.50;15.07;;;13.00;99.90;;;;;;5020233;28;20033;-79
2023/12/18 09:49:30;;;;;;;24.40;15.98;;;13.30;99.90;;;;;;5017335;28;20038;-81
2023/12/18 09:52:11;;;;;;;30.33;17.15;;;13.00;99.90;;;;;;5002470;28;20049;-79
2023/12/18 09:54:39;;;;;;;27.70;17.17;;;13.20;99.90;;;;;;5016352;28;20073;-81
2023/12/18 09:57:09;;;;;;;26.05;16.42;;;13.60;99.90;;;;;;5031300;28;20521;-74
2023/12/18 09:59:35;;;;;;;30.10;16.77;;;13.20;99.90;;;;;;5013621;28;20130;-77
2023/12/18 10:02:02;;;;;;;28.77;17.05;;;13.00;99.90;;;;;;5002083;28;20037;-78
2023/12/18 10:04:28;;;;;;;28.92;16.83;;;13.70;99.90;;;;;;5017823;28;20033;-79
2023/12/18 10:06:54;;;;;;;30.85;17.35;;;13.50;99.90;;;;;;4997537;28;20811;-79
2023/12/18 10:09:21;;;;;;;29.15;17.67;;;13.60;99.90;;;;;;5000835;28;20037;-74
2023/12/18 10:11:50;;;;;;;27.92;17.42;;;13.10;99.90;;;;;;4998503;28;20041;-77
2023/12/18 10:14:16;;;;;;;28.83;18.60;;;13.40;99.90;;;;;;5016104;28;20496;-78
2023/12/18 10:16:42;;;;;;;28.95;18.10;;;13.00;99.90;;;;;;5000175;28;20045;-77
2023/12/18 10:19:09;;;;;;;29.73;18.00;;;13.60;99.90;;;;;;5014839;28;20401;-81
2023/12/18 10:21:36;;;;;;;29.30;19.60;;;13.10;99.90;;;;;;5017453;28;20037;-79
2023/12/18 10:24:02;;;;;;;27.30;19.17;;;13.00;99.90;;;;;;5016338;28;20144;-76
2023/12/18 10:26:28;;;;;;;30.40;19.42;;;13.10;99.90;;;;;;4983957;28;20120;-80
2023/12/18 10:28:54;;;;;;;29.88;20.17;;;13.50;99.90;;;;;;5002533;28;20038;-80
2023/12/18 10:31:20;;;;;;;29.10;20.15;;;13.50;99.90;;;;;;5000795;28;20029;-77
2023/12/18 10:33:46;;;;;;;33.33;21.23;;;13.10;99.90;;;;;;5004676;28;20044;-79
2023/12/18 10:36:15;;;;;;;38.15;21.27;;;13.20;99.90;;;;;;5006445;28;20045;-77
2023/12/18 10:38:41;;;;;;;32.67;21.75;;;13.70;99.90;;;;;;4980920;28;20054;-78
2023/12/18 10:41:09;;;;;;;31.02;20.35;;;13.70;99.90;;;;;;5001783;28;20104;-78
2023/12/18 10:43:36;;;;;;;28.23;21.30;;;13.20;99.90;;;;;;5021331;28;20459;-77
2023/12/18 10:46:06;;;;;;;35.17;20.90;;;13.70;99.90;;;;;;4997902;28;20112;-77
2023/12/18 10:48:33;;;;;;;36.00;22.80;;;13.50;99.90;;;;;;5011222;28;20124;-75
2023/12/18 10:51:01;;;;;;;32.25;21.88;;;13.70;99.90;;;;;;4999242;28;20041;-75
2023/12/18 10:53:28;;;;;;;35.70;21.23;;;13.20;99.90;;;;;;4956554;28;20038;-81
2023/12/18 10:55:56;;;;;;;34.88;21.15;;;13.60;99.90;;;;;;5002061;28;20064;-80
2023/12/18 10:58:22;;;;;;;35.50;22.40;;;13.70;99.90;;;;;;5015955;28;20136;-78
2023/12/18 11:00:49;;;;;;;34.85;22.08;;;13.40;99.90;;;;;;5019330;28;20120;-75
2023/12/18 11:03:18;;;;;;;33.03;20.75;;;13.50;99.90;;;;;;5020018;28;20052;-78
2023/12/18 11:05:46;;;;;;;30.48;20.73;;;13.10;99.90;;;;;;4999604;28;20042;-81
2023/12/18 11:08:12;;;;;;;33.25;21.42;;;13.40;99.90;;;;;;5019069;28;20386;-76
2023/12/18 11:10:38;;;;;;;32.55;20.17;;;13.40;99.90;;;;;;5015813;28;20117;-81
2023/12/18 11:13:22;;;;;;;36.40;22.38;;;13.70;99.90;;;;;;5020237;28;20034;-79
2023/12/18 11:16:05;;;;;;;34.45;20.25;;;13.70;99.90;;;;;;5004324;28;20397;-80
2023/12/18 11:18:53;;;;;;;41.30;22.10;;;13.20;99.90;;;;;;5034417;28;20037;-83
2023/12/18 11:21:18;;;;;;;31.38;21.27;;;13.60;99.90;;;;;;5022157;28;20041;-80
2023/12/18 11:23:50;;;;;;;32.78;20.98;;;13.40;99.90;;;;;;5000523;28;20052;-80
2023/12/18 11:26:15;;;;;;;26.67;19.73;;;13.70;99.90;;;;;;5015026;28;20053;-76
2023/12/18 11:28:43;;;;;;;31.92;20.27;;;13.80;99.90;;;;;;4999117;28;20042;-77
2023/12/18 11:31:13;;;;;;;33.50;20.00;;;13.20;99.90;;;;;;4996292;28;20041;-80
2023/12/18 11:34:02;;;;;;;35.22;21.40;;;13.40;99.90;;;;;;4980006;28;20471;-77
2023/12/18 11:36:28;;;;;;;32.55;20.10;;;13.30;99.90;;;;;;4997542;28;20448;-77
2023/12/18 11:38:56;;;;;;;33.00;21.27;;;13.60;99.90;;;;;;4997658;28;20049;-77
2023/12/18 11:41:47;;;;;;;35.70;21.17;;;13.20;99.90;;;;;;5028172;28;20045;-76
2023/12/18 11:44:14;;;;;;;32.42;21.67;;;13.50;99.90;;;;;;4997086;28;20076;-83
2023/12/18 11:46:41;;;;;;;35.78;20.63;;;13.80;99.90;;;;;;4998734;28;20041;-76
2023/12/18 11:49:07;;;;;;;33.55;21.38;;;13.20;99.90;;;;;;4980896;28;20809;-78
2023/12/18 11:51:34;;;;;;;32.30;20.13;;;13.50;99.90;;;;;;5014103;28;20040;-78
2023/12/18 11:54:03;;;;;;;35.63;20.73;;;13.30;99.90;;;;;;4970319;28;20160;-77
2023/12/18 11:56:38;;;;;;;30.13;20.13;;;13.50;99.90;;;;;;5014742;28;20103;-79
2023/12/18 11:59:04;;;;;;;36.47;20.85;;;13.40;99.90;;;;;;5003521;28;20442;-74
2023/12/18 12:01:31;;;;;;;30.83;20.65;;;13.50;99.90;;;;;;5000549;28;20045;-77
2023/12/18 12:03:58;;;;;;;33.13;20.30;;;13.20;99.90;;;;;;4997091;28;20048;-79
2023/12/18 12:06:24;;;;;;;30.27;18.90;;;13.70;99.90;;;;;;5013310;28;20405;-80
2023/12/18 12:08:50;;;;;;;30.23;20.00;;;13.90;99.90;;;;;;4998255;28;20540;-76
2023/12/18 12:11:17;;;;;;;34.60;20.35;;;13.20;99.90;;;;;;5021530;28;20041;-76
2023/12/18 12:13:48;;;;;;;31.73;19.55;;;13.60;99.90;;;;;;5004341;28;20496;-77
2023/12/18 12:16:18;;;;;;;29.90;19.25;;;13.30;99.90;;;;;;5005374;28;20042;-79
2023/12/18 12:18:48;;;;;;;30.17;19.13;;;13.80;99.90;;;;;;5014278;28;20045;-80
2023/12/18 12:21:14;;;;;;;28.73;19.63;;;13.80;99.90;;;;;;4994163;28;20533;-78
2023/12/18 12:23:40;;;;;;;29.20;19.40;;;13.90;99.90;;;;;;4981302;28;20038;-80
2023/12/18 12:26:09;;;;;;;27.85;17.58;;;13.30;99.90;;;;;;5002468;28;20084;-80